メインページ
METAR-TAF:

METAR-TAF

空港 :

ベレン, パラー州, ブラジル

緯度: 01-23S, 経度: 048-29W, 海抜: 16m

現時点の気象観測

当レポートは49分前の11:00(UTC)に作成
南東の風 4kt
気温 26°C
湿度 89%
気圧 1013 hPa
視程10km以上
高度1500ftの雲は散在している
高度10000ftの千切れ雲あり

METAR: SBBE 221100Z 14004KT 9999 SCT015 BKN100 26/24 Q1013

時間: 08:49 (11:49 UTC)

予報

当レポートは1時間49分前の10:00(UTC)に作成
予報は22日の 12時(UTC)から 23日の 12時(UTC)まで有効
の風 8kt
視程10km以上
高度1700ftの雲はほとんどない
22日の 14時(UTC)から 22日の 16時(UTC)まで徐々に
の風 10kt
高度3000ftの千切れ雲あり
22日の 16時(UTC)から 22日の 18時(UTC)まで徐々に
北/北東の風 10kt
高度3000ftの千切れ雲あり
高度3500ftの雲はほとんどない, 塔状積雲.

TAF: SBBE 221000Z 2212/2312 10008KT 9999 FEW017 TX32/2216Z TN24/2306Z BECMG 2214/2216 36010KT BKN030 BECMG 2216/2218 03010KT BKN030 FEW035TCU PR

4,000以上の空港の気象観測と天気予報(METAR報とTAF報)

利用可能な観測所は地図上に黄色い丸と赤い丸で示す。

丸の上にカーソルを重ねると観測所名を参照できる。

次にクリックすると気象観測と天気予報を参照できる。

マップの切り替え:黒色「×」印の緑ボタンをクリックして拡大、「-」印の緑ボタンをクリックして縮小、緑色の三角印をクリックして隣りの地図に切り替え


METAR-TAF: